EATPANGBORN MEML
METARs for airports near EAT, sorted by distance:
N 0 nm 1248' KEAT 222255Z 09005KT 10SM CLR M02/M03 A3055
SW 25 nm 1763' KELN 222253Z 00000KT 10SM CLR 00/M05 A3051
E 28 nm 1276' KEPH 222253Z 01010KT 10SM BKN006 M01/M03 A3055
E 37 nm 1188' KMWH 222252Z 04003KT 10SM OVC006 01/M02 A3056
S 51 nm 1098' KYKM 222253Z 00000KT 10SM CLR 04/M03 A3053
NE 69 nm 1304' KOMK 222253Z 00000KT 1/4SM FZFG VV002 M04/M06 A3057
SE 75 nm 394' KRLD 222255Z 00000KT 10SM CLR 05/01 A3058
SE 81 nm 410' KPSC 222253Z 35007KT 10SM CLR 05/00 A3058
W 81 nm 32' KRNT 222253Z 00000KT 10SM CLR 06/02 A3052
W 85 nm 21' KBFI 222253Z VRB04KT 10SM FEW010 SCT150 07/03 A3052
W 85 nm 432' KSEA 222253Z 05006KT 10SM FEW004 FEW014 SCT170 06/02 A3051
W 86 nm 537' KPLU 222255Z 00000KT 7SM OVC004 03/03 A3051
W 89 nm 606' KPAE 222253Z 34007KT 310V020 10SM VCFG FEW001 07/03 A3051
NW 91 nm 141' KAWO 222256Z 30007KT 10SM CLR 08/04 A3052
W 93 nm 322' KTCM 222238Z 04004KT 10SM BKN010 05/05 A3051
W 96 nm 294' KTIW 222253Z 08004KT 10SM FEW009 SCT012 SCT031 07/03 A3052
W 98 nm 301' KGRF 222158Z 36005KT 10SM OVC010 05/02 A3050
TAFs for airports near EAT, sorted by distance:
N 0 nm 1248' KEAT TAF COR KEAT 221749Z 2218/2318 VRB04KT 3SM BR SCT001
  TEMPO 2218/2221 1/4SM FZFG VV001
  FM222200 VRB03KT 6SM BR FEW250
  FM230200 VRB02KT 1/4SM FZFG VV002
E 37 nm 1188' KMWH KMWH 222047Z 2221/2318 33004KT 1/4SM FZFG VV002
  TEMPO 2223/2303 1/2SM FZFG OVC002
  FM230400 35004KT 1/4SM FZFG VV001
S 51 nm 1098' KYKM KYKM 221738Z 2218/2318 VRB04KT P6SM FEW250
  FM230800 28004KT 4SM BR SCT001 SCT200
  FM231400 29002KT 1SM BR BKN005
SE 81 nm 410' KPSC TAF
  AMD KPSC 222125Z 2221/2318 VRB04KT P6SM SCT010
  FM230300 VRB04KT 4SM BR SCT002
  FM230500 VRB04KT 1/2SM FZFG BKN002
W 85 nm 21' KBFI TAF
  AMD KBFI 221731Z 2218/2318 VRB03KT 2SM BR OVC002
  FM222000 35004KT 4SM BR BKN012
  FM222200 34004KT 6SM BR SCT015 BKN250
  FM230500 03004KT 4SM BR BKN010
  FM231000 00000KT 2SM BR OVC005
  TEMPO 2313/2317 1/4SM FG OVC002
W 85 nm 432' KSEA TAF
  AMD KSEA 222102Z 2221/2324 04004KT P6SM SCT004 BKN015
  FM230000 01006KT P6SM SCT015 BKN250
  FM230600 02003KT 1SM BR FEW010
  FM231000 00000KT 1/4SM FG VV001
  FM231700 VRB02KT 1SM BR OVC003
  FM232000 35003KT P6SM SCT005 SCT015 SCT250
W 89 nm 606' KPAE TAF
  AMD KPAE 222145Z 2222/2318 36006KT P6SM SCT010 SCT200
  FM230500 VRB02KT 1SM BR BKN003
  FM231000 00000KT 1/4SM FG VV001
W 93 nm 322' KTCM TAF KTCM 222100Z 2221/2403 VRB03KT 9999 OVC005 QNH3049INS
  BECMG 2222/2223 02006KT 9999 FEW010 QNH3044INS
  BECMG 2305/2306 01004KT 3200 BR SCT001 QNH3036INS
  TEMPO 2309/2315 0600 FG
  BECMG 2317/2318 01006KT 9999 NSW OVC003 QNH3030INS
  BECMG 2323/2324 VRB06KT 9999 SCT010 QNH3030INS TX07/2222Z TN00/2314Z
W 98 nm 301' KGRF TAF
  AMD KGRF 222256Z 2222/2403 VRB05KT 9999 SCT010 QNH3050INS
  BECMG 2302/2303 VRB05KT 9999 SCT020 QNH3049INS
  BECMG 2309/2310 VRB05KT 3200 BR OVC015 QNH3047INS
  TEMPO 2313/2316 VRB02KT 1600 BR OVC010
  BECMG 2318/2319 02005KT 9999 NSW SCT020 QNH3040INS
  BECMG 2322/2323 02005KT 9999 SCT020 QNH3040INS TX07/2221Z TN02/2316Z

Shortcut to this page: http://wxbay.com.

Data may contain errors.